sensor_id;sensor_type;location;lat;lon;timestamp;P1;durP1;ratioP1;P2;durP2;ratioP2
20611;SDS011;10465;42.686;23.364;2022-11-20T00:02:14;7.75;;;5.25;;
20611;SDS011;10465;42.686;23.364;2022-11-20T00:04:40;5.95;;;3.78;;
20611;SDS011;10465;42.686;23.364;2022-11-20T00:07:05;10.40;;;5.60;;
20611;SDS011;10465;42.686;23.364;2022-11-20T00:09:31;8.00;;;5.82;;
20611;SDS011;10465;42.686;23.364;2022-11-20T00:11:56;9.10;;;5.45;;
20611;SDS011;10465;42.686;23.364;2022-11-20T00:14:21;8.00;;;5.88;;
20611;SDS011;10465;42.686;23.364;2022-11-20T00:16:47;6.28;;;5.63;;
20611;SDS011;10465;42.686;23.364;2022-11-20T00:19:12;9.15;;;6.70;;
20611;SDS011;10465;42.686;23.364;2022-11-20T00:21:38;11.15;;;6.68;;
20611;SDS011;10465;42.686;23.364;2022-11-20T00:24:03;7.43;;;6.28;;
20611;SDS011;10465;42.686;23.364;2022-11-20T00:26:29;11.10;;;6.78;;
20611;SDS011;10465;42.686;23.364;2022-11-20T00:28:56;10.02;;;7.25;;
20611;SDS011;10465;42.686;23.364;2022-11-20T00:31:23;11.50;;;6.70;;
20611;SDS011;10465;42.686;23.364;2022-11-20T00:33:49;9.50;;;6.47;;
20611;SDS011;10465;42.686;23.364;2022-11-20T00:36:15;7.25;;;5.55;;
20611;SDS011;10465;42.686;23.364;2022-11-20T00:38:43;14.20;;;6.45;;
20611;SDS011;10465;42.686;23.364;2022-11-20T00:41:10;9.45;;;6.05;;
20611;SDS011;10465;42.686;23.364;2022-11-20T00:43:37;8.77;;;5.85;;
20611;SDS011;10465;42.686;23.364;2022-11-20T00:48:30;9.75;;;5.72;;
20611;SDS011;10465;42.686;23.364;2022-11-20T00:50:56;7.95;;;5.28;;
20611;SDS011;10465;42.686;23.364;2022-11-20T00:53:22;8.57;;;4.68;;
20611;SDS011;10465;42.686;23.364;2022-11-20T00:55:55;6.50;;;4.70;;
20611;SDS011;10465;42.686;23.364;2022-11-20T00:58:22;6.13;;;4.50;;
20611;SDS011;10465;42.686;23.364;2022-11-20T01:00:49;6.60;;;3.63;;
20611;SDS011;10465;42.686;23.364;2022-11-20T01:03:15;6.65;;;3.78;;
20611;SDS011;10465;42.686;23.364;2022-11-20T01:05:44;9.35;;;3.53;;
20611;SDS011;10465;42.686;23.364;2022-11-20T01:08:10;4.35;;;2.90;;
20611;SDS011;10465;42.686;23.364;2022-11-20T01:10:36;5.38;;;3.00;;
20611;SDS011;10465;42.686;23.364;2022-11-20T01:13:01;2.88;;;2.55;;
20611;SDS011;10465;42.686;23.364;2022-11-20T01:15:45;5.28;;;2.13;;
20611;SDS011;10465;42.686;23.364;2022-11-20T01:18:11;5.15;;;2.75;;
20611;SDS011;10465;42.686;23.364;2022-11-20T01:20:36;3.92;;;2.83;;
20611;SDS011;10465;42.686;23.364;2022-11-20T01:23:02;1.95;;;1.10;;
20611;SDS011;10465;42.686;23.364;2022-11-20T01:25:28;3.55;;;0.90;;
20611;SDS011;10465;42.686;23.364;2022-11-20T01:27:54;1.98;;;1.30;;
20611;SDS011;10465;42.686;23.364;2022-11-20T01:30:19;2.75;;;1.50;;
20611;SDS011;10465;42.686;23.364;2022-11-20T01:32:45;3.17;;;1.30;;
20611;SDS011;10465;42.686;23.364;2022-11-20T01:35:10;3.13;;;1.23;;
20611;SDS011;10465;42.686;23.364;2022-11-20T01:37:36;4.25;;;2.83;;
20611;SDS011;10465;42.686;23.364;2022-11-20T01:40:01;5.50;;;2.63;;
20611;SDS011;10465;42.686;23.364;2022-11-20T01:42:27;4.25;;;2.38;;
20611;SDS011;10465;42.686;23.364;2022-11-20T01:48:15;5.95;;;3.38;;
20611;SDS011;10465;42.686;23.364;2022-11-20T01:50:41;6.90;;;3.55;;
20611;SDS011;10465;42.686;23.364;2022-11-20T01:53:08;3.70;;;1.63;;
20611;SDS011;10465;42.686;23.364;2022-11-20T01:55:39;2.55;;;1.20;;
20611;SDS011;10465;42.686;23.364;2022-11-20T01:58:10;2.42;;;1.38;;
20611;SDS011;10465;42.686;23.364;2022-11-20T02:00:37;1.92;;;1.27;;
20611;SDS011;10465;42.686;23.364;2022-11-20T02:03:03;1.98;;;1.00;;
20611;SDS011;10465;42.686;23.364;2022-11-20T02:05:36;2.47;;;1.23;;
20611;SDS011;10465;42.686;23.364;2022-11-20T02:08:06;1.67;;;1.13;;
20611;SDS011;10465;42.686;23.364;2022-11-20T02:10:32;2.10;;;1.40;;
20611;SDS011;10465;42.686;23.364;2022-11-20T02:12:59;4.68;;;1.33;;
20611;SDS011;10465;42.686;23.364;2022-11-20T02:15:43;2.67;;;1.15;;
20611;SDS011;10465;42.686;23.364;2022-11-20T02:18:10;5.40;;;1.77;;
20611;SDS011;10465;42.686;23.364;2022-11-20T02:20:39;2.40;;;1.35;;
20611;SDS011;10465;42.686;23.364;2022-11-20T02:26:16;2.72;;;1.55;;
20611;SDS011;10465;42.686;23.364;2022-11-20T02:28:43;2.95;;;1.40;;
20611;SDS011;10465;42.686;23.364;2022-11-20T02:31:08;2.85;;;1.42;;
20611;SDS011;10465;42.686;23.364;2022-11-20T02:33:34;2.53;;;1.92;;
20611;SDS011;10465;42.686;23.364;2022-11-20T02:35:59;2.80;;;1.70;;
20611;SDS011;10465;42.686;23.364;2022-11-20T02:38:25;3.25;;;2.20;;
20611;SDS011;10465;42.686;23.364;2022-11-20T02:40:51;2.60;;;2.05;;
20611;SDS011;10465;42.686;23.364;2022-11-20T02:43:16;4.15;;;2.05;;
20611;SDS011;10465;42.686;23.364;2022-11-20T02:45:42;3.60;;;1.50;;
20611;SDS011;10465;42.686;23.364;2022-11-20T02:48:07;3.97;;;1.50;;
20611;SDS011;10465;42.686;23.364;2022-11-20T02:50:35;3.03;;;1.52;;
20611;SDS011;10465;42.686;23.364;2022-11-20T02:53:01;1.60;;;1.10;;
20611;SDS011;10465;42.686;23.364;2022-11-20T02:55:27;3.33;;;1.05;;
20611;SDS011;10465;42.686;23.364;2022-11-20T02:57:52;4.47;;;1.33;;
20611;SDS011;10465;42.686;23.364;2022-11-20T03:00:18;1.48;;;0.77;;
20611;SDS011;10465;42.686;23.364;2022-11-20T03:02:43;2.90;;;0.80;;
20611;SDS011;10465;42.686;23.364;2022-11-20T03:05:09;1.48;;;0.90;;
20611;SDS011;10465;42.686;23.364;2022-11-20T03:07:34;4.10;;;1.10;;
20611;SDS011;10465;42.686;23.364;2022-11-20T03:10:00;1.88;;;1.20;;
20611;SDS011;10465;42.686;23.364;2022-11-20T03:12:25;3.03;;;1.02;;
20611;SDS011;10465;42.686;23.364;2022-11-20T03:14:51;3.38;;;0.80;;
20611;SDS011;10465;42.686;23.364;2022-11-20T03:17:16;1.90;;;1.05;;
20611;SDS011;10465;42.686;23.364;2022-11-20T03:19:42;2.13;;;1.13;;
20611;SDS011;10465;42.686;23.364;2022-11-20T03:22:07;2.92;;;1.08;;
20611;SDS011;10465;42.686;23.364;2022-11-20T03:24:33;4.72;;;1.20;;
20611;SDS011;10465;42.686;23.364;2022-11-20T03:26:58;4.05;;;1.20;;
20611;SDS011;10465;42.686;23.364;2022-11-20T03:29:23;3.08;;;1.30;;
20611;SDS011;10465;42.686;23.364;2022-11-20T03:31:49;2.97;;;1.20;;
20611;SDS011;10465;42.686;23.364;2022-11-20T03:34:14;1.90;;;1.00;;
20611;SDS011;10465;42.686;23.364;2022-11-20T03:36:41;1.25;;;0.85;;
20611;SDS011;10465;42.686;23.364;2022-11-20T03:39:07;1.17;;;0.85;;
20611;SDS011;10465;42.686;23.364;2022-11-20T03:41:37;4.13;;;1.15;;
20611;SDS011;10465;42.686;23.364;2022-11-20T03:44:05;2.22;;;0.90;;
20611;SDS011;10465;42.686;23.364;2022-11-20T03:46:33;3.30;;;0.85;;
20611;SDS011;10465;42.686;23.364;2022-11-20T03:48:58;2.15;;;0.98;;
20611;SDS011;10465;42.686;23.364;2022-11-20T03:51:25;3.97;;;1.00;;
20611;SDS011;10465;42.686;23.364;2022-11-20T03:53:52;3.47;;;1.02;;
20611;SDS011;10465;42.686;23.364;2022-11-20T03:56:20;3.30;;;0.98;;
20611;SDS011;10465;42.686;23.364;2022-11-20T03:58:49;2.20;;;1.48;;
20611;SDS011;10465;42.686;23.364;2022-11-20T04:01:19;3.40;;;1.30;;
20611;SDS011;10465;42.686;23.364;2022-11-20T04:03:46;2.85;;;1.05;;
20611;SDS011;10465;42.686;23.364;2022-11-20T04:06:18;1.67;;;0.93;;
20611;SDS011;10465;42.686;23.364;2022-11-20T04:08:45;2.78;;;1.25;;
20611;SDS011;10465;42.686;23.364;2022-11-20T04:11:15;1.48;;;0.90;;
20611;SDS011;10465;42.686;23.364;2022-11-20T04:13:46;2.08;;;1.02;;
20611;SDS011;10465;42.686;23.364;2022-11-20T04:16:12;1.67;;;0.90;;
20611;SDS011;10465;42.686;23.364;2022-11-20T04:18:38;3.20;;;1.00;;
20611;SDS011;10465;42.686;23.364;2022-11-20T04:21:03;4.97;;;1.10;;
20611;SDS011;10465;42.686;23.364;2022-11-20T04:23:30;2.55;;;1.00;;
20611;SDS011;10465;42.686;23.364;2022-11-20T04:26:00;2.40;;;0.88;;
20611;SDS011;10465;42.686;23.364;2022-11-20T04:28:27;2.20;;;0.73;;
20611;SDS011;10465;42.686;23.364;2022-11-20T04:30:52;2.00;;;0.80;;
20611;SDS011;10465;42.686;23.364;2022-11-20T04:33:18;1.77;;;0.80;;
20611;SDS011;10465;42.686;23.364;2022-11-20T04:35:43;5.00;;;0.80;;
20611;SDS011;10465;42.686;23.364;2022-11-20T04:38:12;3.45;;;0.90;;
20611;SDS011;10465;42.686;23.364;2022-11-20T04:40:39;0.77;;;0.68;;
20611;SDS011;10465;42.686;23.364;2022-11-20T04:43:04;1.52;;;1.00;;
20611;SDS011;10465;42.686;23.364;2022-11-20T04:45:29;1.02;;;0.73;;
20611;SDS011;10465;42.686;23.364;2022-11-20T04:47:55;5.20;;;1.25;;
20611;SDS011;10465;42.686;23.364;2022-11-20T04:50:20;3.28;;;1.25;;
20611;SDS011;10465;42.686;23.364;2022-11-20T04:52:46;3.60;;;1.50;;
20611;SDS011;10465;42.686;23.364;2022-11-20T04:55:11;4.28;;;1.45;;
20611;SDS011;10465;42.686;23.364;2022-11-20T04:57:37;2.83;;;1.20;;
20611;SDS011;10465;42.686;23.364;2022-11-20T05:00:03;2.10;;;0.98;;
20611;SDS011;10465;42.686;23.364;2022-11-20T05:02:30;2.05;;;1.08;;
20611;SDS011;10465;42.686;23.364;2022-11-20T05:04:56;2.78;;;0.73;;
20611;SDS011;10465;42.686;23.364;2022-11-20T05:07:21;4.47;;;0.70;;
20611;SDS011;10465;42.686;23.364;2022-11-20T05:09:47;3.40;;;1.10;;
20611;SDS011;10465;42.686;23.364;2022-11-20T05:12:12;2.92;;;0.80;;
20611;SDS011;10465;42.686;23.364;2022-11-20T05:14:37;0.98;;;0.80;;
20611;SDS011;10465;42.686;23.364;2022-11-20T05:17:03;3.47;;;1.10;;
20611;SDS011;10465;42.686;23.364;2022-11-20T05:19:28;2.58;;;0.93;;
20611;SDS011;10465;42.686;23.364;2022-11-20T05:21:54;3.65;;;0.82;;
20611;SDS011;10465;42.686;23.364;2022-11-20T05:24:19;3.20;;;1.02;;
20611;SDS011;10465;42.686;23.364;2022-11-20T05:26:45;2.08;;;1.17;;
20611;SDS011;10465;42.686;23.364;2022-11-20T05:29:11;4.25;;;0.80;;
20611;SDS011;10465;42.686;23.364;2022-11-20T05:31:38;2.03;;;0.90;;
20611;SDS011;10465;42.686;23.364;2022-11-20T05:34:04;2.92;;;0.90;;
20611;SDS011;10465;42.686;23.364;2022-11-20T05:36:30;2.03;;;0.90;;
20611;SDS011;10465;42.686;23.364;2022-11-20T05:38:55;1.98;;;1.00;;
20611;SDS011;10465;42.686;23.364;2022-11-20T05:41:21;2.58;;;0.90;;
20611;SDS011;10465;42.686;23.364;2022-11-20T05:43:47;2.05;;;0.85;;
20611;SDS011;10465;42.686;23.364;2022-11-20T05:46:14;3.90;;;1.08;;
20611;SDS011;10465;42.686;23.364;2022-11-20T05:48:41;1.40;;;0.88;;
20611;SDS011;10465;42.686;23.364;2022-11-20T05:51:08;4.95;;;1.30;;
20611;SDS011;10465;42.686;23.364;2022-11-20T05:53:35;2.25;;;0.98;;
20611;SDS011;10465;42.686;23.364;2022-11-20T05:56:03;2.25;;;1.10;;
20611;SDS011;10465;42.686;23.364;2022-11-20T05:58:33;3.60;;;1.20;;
20611;SDS011;10465;42.686;23.364;2022-11-20T06:03:39;4.07;;;1.10;;
20611;SDS011;10465;42.686;23.364;2022-11-20T06:06:06;4.72;;;1.30;;
20611;SDS011;10465;42.686;23.364;2022-11-20T06:08:32;2.20;;;0.85;;
20611;SDS011;10465;42.686;23.364;2022-11-20T06:10:57;1.85;;;1.00;;
20611;SDS011;10465;42.686;23.364;2022-11-20T06:13:23;2.47;;;1.10;;
20611;SDS011;10465;42.686;23.364;2022-11-20T06:15:50;3.90;;;1.33;;
20611;SDS011;10465;42.686;23.364;2022-11-20T06:18:16;2.25;;;0.95;;
20611;SDS011;10465;42.686;23.364;2022-11-20T06:20:42;4.47;;;1.25;;
20611;SDS011;10465;42.686;23.364;2022-11-20T06:23:07;2.45;;;0.98;;
20611;SDS011;10465;42.686;23.364;2022-11-20T06:25:33;3.63;;;1.10;;
20611;SDS011;10465;42.686;23.364;2022-11-20T06:28:02;3.50;;;1.15;;
20611;SDS011;10465;42.686;23.364;2022-11-20T06:30:27;3.38;;;1.17;;
20611;SDS011;10465;42.686;23.364;2022-11-20T06:32:52;3.53;;;1.35;;
20611;SDS011;10465;42.686;23.364;2022-11-20T06:35:18;3.17;;;1.33;;
20611;SDS011;10465;42.686;23.364;2022-11-20T06:37:43;3.35;;;1.23;;
20611;SDS011;10465;42.686;23.364;2022-11-20T06:40:09;1.98;;;0.95;;
20611;SDS011;10465;42.686;23.364;2022-11-20T06:42:35;3.88;;;1.20;;
20611;SDS011;10465;42.686;23.364;2022-11-20T06:45:00;5.50;;;1.20;;
20611;SDS011;10465;42.686;23.364;2022-11-20T06:47:25;4.13;;;1.45;;
20611;SDS011;10465;42.686;23.364;2022-11-20T06:49:51;6.35;;;1.10;;
20611;SDS011;10465;42.686;23.364;2022-11-20T06:52:16;3.92;;;1.35;;
20611;SDS011;10465;42.686;23.364;2022-11-20T06:54:42;5.90;;;1.10;;
20611;SDS011;10465;42.686;23.364;2022-11-20T06:57:07;2.88;;;1.23;;
20611;SDS011;10465;42.686;23.364;2022-11-20T06:59:32;4.78;;;1.40;;
20611;SDS011;10465;42.686;23.364;2022-11-20T07:01:58;2.20;;;1.08;;
20611;SDS011;10465;42.686;23.364;2022-11-20T07:04:24;2.75;;;1.10;;
20611;SDS011;10465;42.686;23.364;2022-11-20T07:06:49;3.58;;;0.90;;
20611;SDS011;10465;42.686;23.364;2022-11-20T07:09:15;3.70;;;0.95;;
20611;SDS011;10465;42.686;23.364;2022-11-20T07:11:41;3.15;;;0.90;;
20611;SDS011;10465;42.686;23.364;2022-11-20T07:14:06;1.23;;;0.75;;
20611;SDS011;10465;42.686;23.364;2022-11-20T07:16:32;3.95;;;1.00;;
20611;SDS011;10465;42.686;23.364;2022-11-20T07:18:59;3.38;;;1.10;;
20611;SDS011;10465;42.686;23.364;2022-11-20T07:21:24;3.15;;;0.90;;
20611;SDS011;10465;42.686;23.364;2022-11-20T07:23:50;4.35;;;1.00;;
20611;SDS011;10465;42.686;23.364;2022-11-20T07:26:15;2.17;;;1.63;;
20611;SDS011;10465;42.686;23.364;2022-11-20T07:28:43;2.72;;;1.10;;
20611;SDS011;10465;42.686;23.364;2022-11-20T07:31:09;3.10;;;1.35;;
20611;SDS011;10465;42.686;23.364;2022-11-20T07:33:35;3.42;;;1.15;;
20611;SDS011;10465;42.686;23.364;2022-11-20T07:36:00;2.58;;;1.20;;
20611;SDS011;10465;42.686;23.364;2022-11-20T07:38:26;8.57;;;1.13;;
20611;SDS011;10465;42.686;23.364;2022-11-20T07:40:55;2.65;;;1.08;;
20611;SDS011;10465;42.686;23.364;2022-11-20T07:43:22;3.28;;;1.00;;
20611;SDS011;10465;42.686;23.364;2022-11-20T07:45:48;1.30;;;0.75;;
20611;SDS011;10465;42.686;23.364;2022-11-20T07:48:14;3.88;;;1.10;;
20611;SDS011;10465;42.686;23.364;2022-11-20T07:50:39;4.00;;;1.27;;
20611;SDS011;10465;42.686;23.364;2022-11-20T07:53:04;3.47;;;1.10;;
20611;SDS011;10465;42.686;23.364;2022-11-20T07:55:31;3.45;;;1.27;;
20611;SDS011;10465;42.686;23.364;2022-11-20T07:57:57;5.03;;;1.38;;
20611;SDS011;10465;42.686;23.364;2022-11-20T08:00:23;2.80;;;1.10;;
20611;SDS011;10465;42.686;23.364;2022-11-20T08:02:49;3.53;;;1.00;;
20611;SDS011;10465;42.686;23.364;2022-11-20T08:05:15;2.72;;;1.00;;
20611;SDS011;10465;42.686;23.364;2022-11-20T08:07:41;2.88;;;1.10;;
20611;SDS011;10465;42.686;23.364;2022-11-20T08:10:09;2.13;;;1.10;;
20611;SDS011;10465;42.686;23.364;2022-11-20T08:12:42;5.70;;;1.50;;
20611;SDS011;10465;42.686;23.364;2022-11-20T08:15:27;3.55;;;1.00;;
20611;SDS011;10465;42.686;23.364;2022-11-20T08:17:58;4.18;;;1.20;;
20611;SDS011;10465;42.686;23.364;2022-11-20T08:20:33;4.45;;;1.30;;
20611;SDS011;10465;42.686;23.364;2022-11-20T08:23:03;5.13;;;1.25;;
20611;SDS011;10465;42.686;23.364;2022-11-20T08:25:32;4.50;;;1.40;;
20611;SDS011;10465;42.686;23.364;2022-11-20T08:27:59;5.70;;;1.77;;
20611;SDS011;10465;42.686;23.364;2022-11-20T08:30:25;6.25;;;1.65;;
20611;SDS011;10465;42.686;23.364;2022-11-20T08:32:52;6.22;;;1.95;;
20611;SDS011;10465;42.686;23.364;2022-11-20T08:35:18;5.47;;;2.10;;
20611;SDS011;10465;42.686;23.364;2022-11-20T08:37:47;3.97;;;2.08;;
20611;SDS011;10465;42.686;23.364;2022-11-20T08:40:13;5.53;;;1.85;;
20611;SDS011;10465;42.686;23.364;2022-11-20T08:42:46;6.38;;;2.15;;
20611;SDS011;10465;42.686;23.364;2022-11-20T08:45:12;5.38;;;2.08;;
20611;SDS011;10465;42.686;23.364;2022-11-20T08:47:38;5.60;;;2.10;;
20611;SDS011;10465;42.686;23.364;2022-11-20T08:50:03;6.75;;;1.77;;
20611;SDS011;10465;42.686;23.364;2022-11-20T08:52:29;9.18;;;2.75;;
20611;SDS011;10465;42.686;23.364;2022-11-20T08:54:55;9.77;;;2.40;;
20611;SDS011;10465;42.686;23.364;2022-11-20T08:57:20;4.68;;;2.33;;
20611;SDS011;10465;42.686;23.364;2022-11-20T08:59:45;7.90;;;2.42;;
20611;SDS011;10465;42.686;23.364;2022-11-20T09:02:11;6.13;;;2.42;;
20611;SDS011;10465;42.686;23.364;2022-11-20T09:04:37;6.75;;;2.00;;
20611;SDS011;10465;42.686;23.364;2022-11-20T09:07:02;7.38;;;2.20;;
20611;SDS011;10465;42.686;23.364;2022-11-20T09:09:28;6.38;;;2.70;;
20611;SDS011;10465;42.686;23.364;2022-11-20T09:11:53;8.40;;;2.50;;
20611;SDS011;10465;42.686;23.364;2022-11-20T09:14:19;6.70;;;3.25;;
20611;SDS011;10465;42.686;23.364;2022-11-20T09:16:45;6.60;;;2.88;;
20611;SDS011;10465;42.686;23.364;2022-11-20T09:19:11;6.65;;;2.70;;
20611;SDS011;10465;42.686;23.364;2022-11-20T09:21:37;8.73;;;3.75;;
20611;SDS011;10465;42.686;23.364;2022-11-20T09:24:02;8.98;;;4.47;;
20611;SDS011;10465;42.686;23.364;2022-11-20T09:26:29;8.68;;;4.55;;
20611;SDS011;10465;42.686;23.364;2022-11-20T09:28:54;7.40;;;3.40;;
20611;SDS011;10465;42.686;23.364;2022-11-20T09:31:24;3.05;;;1.52;;
20611;SDS011;10465;42.686;23.364;2022-11-20T09:33:51;2.90;;;1.17;;
20611;SDS011;10465;42.686;23.364;2022-11-20T09:36:16;2.95;;;1.50;;
20611;SDS011;10465;42.686;23.364;2022-11-20T09:38:43;4.43;;;1.23;;
20611;SDS011;10465;42.686;23.364;2022-11-20T09:42:01;2.67;;;1.67;;
20611;SDS011;10465;42.686;23.364;2022-11-20T09:52:30;2.65;;;1.40;;
20611;SDS011;10465;42.686;23.364;2022-11-20T09:57:36;2.30;;;1.42;;
20611;SDS011;10465;42.686;23.364;2022-11-20T10:00:05;2.55;;;1.48;;
20611;SDS011;10465;42.686;23.364;2022-11-20T10:05:33;3.13;;;2.10;;
20611;SDS011;10465;42.686;23.364;2022-11-20T10:08:14;5.55;;;2.65;;
20611;SDS011;10465;42.686;23.364;2022-11-20T10:10:43;6.85;;;3.00;;
20611;SDS011;10465;42.686;23.364;2022-11-20T10:16:10;6.50;;;3.50;;
20611;SDS011;10465;42.686;23.364;2022-11-20T10:29:46;8.02;;;3.50;;
20611;SDS011;10465;42.686;23.364;2022-11-20T10:32:29;7.00;;;3.08;;
20611;SDS011;10465;42.686;23.364;2022-11-20T10:35:03;7.95;;;4.28;;
20611;SDS011;10465;42.686;23.364;2022-11-20T10:37:56;10.18;;;5.82;;
20611;SDS011;10465;42.686;23.364;2022-11-20T10:40:44;10.75;;;8.20;;
20611;SDS011;10465;42.686;23.364;2022-11-20T10:43:17;10.85;;;6.88;;
20611;SDS011;10465;42.686;23.364;2022-11-20T10:45:58;9.80;;;5.65;;
20611;SDS011;10465;42.686;23.364;2022-11-20T10:48:28;8.75;;;4.72;;
20611;SDS011;10465;42.686;23.364;2022-11-20T11:01:54;5.60;;;3.90;;
20611;SDS011;10465;42.686;23.364;2022-11-20T11:07:04;8.43;;;5.05;;
20611;SDS011;10465;42.686;23.364;2022-11-20T11:09:54;12.88;;;4.90;;
20611;SDS011;10465;42.686;23.364;2022-11-20T11:12:21;11.25;;;6.53;;
20611;SDS011;10465;42.686;23.364;2022-11-20T11:14:53;12.70;;;3.40;;
20611;SDS011;10465;42.686;23.364;2022-11-20T11:19:58;7.22;;;2.40;;
20611;SDS011;10465;42.686;23.364;2022-11-20T11:22:47;4.53;;;1.75;;
20611;SDS011;10465;42.686;23.364;2022-11-20T11:25:31;3.50;;;0.80;;
20611;SDS011;10465;42.686;23.364;2022-11-20T11:28:21;3.55;;;1.00;;
20611;SDS011;10465;42.686;23.364;2022-11-20T11:30:47;2.95;;;1.10;;
20611;SDS011;10465;42.686;23.364;2022-11-20T11:33:19;4.78;;;0.98;;
20611;SDS011;10465;42.686;23.364;2022-11-20T11:35:54;4.28;;;1.30;;
20611;SDS011;10465;42.686;23.364;2022-11-20T11:38:32;2.65;;;0.80;;
20611;SDS011;10465;42.686;23.364;2022-11-20T11:41:02;3.38;;;1.42;;
20611;SDS011;10465;42.686;23.364;2022-11-20T11:43:30;1.85;;;1.25;;
20611;SDS011;10465;42.686;23.364;2022-11-20T11:46:36;5.22;;;1.38;;
20611;SDS011;10465;42.686;23.364;2022-11-20T11:54:29;2.60;;;1.00;;
20611;SDS011;10465;42.686;23.364;2022-11-20T12:00:05;5.30;;;1.23;;
20611;SDS011;10465;42.686;23.364;2022-11-20T12:05:21;4.60;;;1.08;;
20611;SDS011;10465;42.686;23.364;2022-11-20T12:07:54;2.53;;;0.70;;
20611;SDS011;10465;42.686;23.364;2022-11-20T12:13:30;3.08;;;1.30;;
20611;SDS011;10465;42.686;23.364;2022-11-20T12:16:02;2.80;;;0.80;;
20611;SDS011;10465;42.686;23.364;2022-11-20T12:18:29;2.55;;;0.70;;
20611;SDS011;10465;42.686;23.364;2022-11-20T12:23:46;3.58;;;1.00;;
20611;SDS011;10465;42.686;23.364;2022-11-20T12:26:20;4.00;;;0.90;;
20611;SDS011;10465;42.686;23.364;2022-11-20T12:29:12;10.30;;;3.20;;
20611;SDS011;10465;42.686;23.364;2022-11-20T12:39:48;1.50;;;0.68;;
20611;SDS011;10465;42.686;23.364;2022-11-20T13:01:40;5.80;;;3.08;;
20611;SDS011;10465;42.686;23.364;2022-11-20T13:06:46;9.93;;;5.47;;
20611;SDS011;10465;42.686;23.364;2022-11-20T13:09:13;9.30;;;5.22;;
20611;SDS011;10465;42.686;23.364;2022-11-20T13:17:54;8.05;;;3.97;;
20611;SDS011;10465;42.686;23.364;2022-11-20T13:19:58;8.05;;;3.80;;
20611;SDS011;10465;42.686;23.364;2022-11-20T13:22:28;6.03;;;3.20;;
20611;SDS011;10465;42.686;23.364;2022-11-20T13:25:10;6.40;;;2.75;;
20611;SDS011;10465;42.686;23.364;2022-11-20T13:27:35;7.18;;;3.60;;
20611;SDS011;10465;42.686;23.364;2022-11-20T13:30:14;2.95;;;1.85;;
20611;SDS011;10465;42.686;23.364;2022-11-20T13:35:32;4.68;;;1.40;;
20611;SDS011;10465;42.686;23.364;2022-11-20T13:38:06;5.00;;;2.60;;
20611;SDS011;10465;42.686;23.364;2022-11-20T13:43:27;6.18;;;2.70;;
20611;SDS011;10465;42.686;23.364;2022-11-20T13:46:04;4.22;;;2.53;;
20611;SDS011;10465;42.686;23.364;2022-11-20T13:48:32;5.53;;;2.80;;
20611;SDS011;10465;42.686;23.364;2022-11-20T13:56:39;5.63;;;3.58;;
20611;SDS011;10465;42.686;23.364;2022-11-20T14:01:58;7.75;;;3.17;;
20611;SDS011;10465;42.686;23.364;2022-11-20T14:04:55;5.38;;;3.22;;
20611;SDS011;10465;42.686;23.364;2022-11-20T14:07:24;9.18;;;4.43;;
20611;SDS011;10465;42.686;23.364;2022-11-20T14:09:57;7.22;;;4.25;;
20611;SDS011;10465;42.686;23.364;2022-11-20T14:12:27;6.50;;;3.40;;
20611;SDS011;10465;42.686;23.364;2022-11-20T14:14:55;6.00;;;3.90;;
20611;SDS011;10465;42.686;23.364;2022-11-20T14:17:22;11.38;;;3.78;;
20611;SDS011;10465;42.686;23.364;2022-11-20T14:19:53;6.00;;;3.88;;
20611;SDS011;10465;42.686;23.364;2022-11-20T14:22:23;5.05;;;3.10;;
20611;SDS011;10465;42.686;23.364;2022-11-20T14:25:17;5.65;;;3.97;;
20611;SDS011;10465;42.686;23.364;2022-11-20T14:27:52;9.10;;;4.45;;
20611;SDS011;10465;42.686;23.364;2022-11-20T14:30:35;7.43;;;3.97;;
20611;SDS011;10465;42.686;23.364;2022-11-20T14:33:09;10.38;;;5.10;;
20611;SDS011;10465;42.686;23.364;2022-11-20T14:35:42;9.45;;;4.22;;
20611;SDS011;10465;42.686;23.364;2022-11-20T14:38:17;9.43;;;5.20;;
20611;SDS011;10465;42.686;23.364;2022-11-20T14:40:46;8.57;;;6.10;;
20611;SDS011;10465;42.686;23.364;2022-11-20T14:43:22;9.43;;;5.95;;
20611;SDS011;10465;42.686;23.364;2022-11-20T14:48:31;11.57;;;6.40;;
20611;SDS011;10465;42.686;23.364;2022-11-20T14:51:04;11.15;;;5.70;;
20611;SDS011;10465;42.686;23.364;2022-11-20T14:53:29;9.30;;;5.65;;
20611;SDS011;10465;42.686;23.364;2022-11-20T14:55:59;9.98;;;5.90;;
20611;SDS011;10465;42.686;23.364;2022-11-20T14:58:29;11.07;;;7.57;;
20611;SDS011;10465;42.686;23.364;2022-11-20T15:01:14;13.20;;;6.45;;
20611;SDS011;10465;42.686;23.364;2022-11-20T15:03:57;11.23;;;6.47;;
20611;SDS011;10465;42.686;23.364;2022-11-20T15:06:27;12.77;;;6.85;;
20611;SDS011;10465;42.686;23.364;2022-11-20T15:08:54;15.30;;;8.63;;
20611;SDS011;10465;42.686;23.364;2022-11-20T15:11:21;17.20;;;10.32;;
20611;SDS011;10465;42.686;23.364;2022-11-20T15:13:53;12.93;;;6.95;;
20611;SDS011;10465;42.686;23.364;2022-11-20T15:16:19;7.70;;;5.60;;
20611;SDS011;10465;42.686;23.364;2022-11-20T15:18:46;9.55;;;4.40;;
20611;SDS011;10465;42.686;23.364;2022-11-20T15:21:13;8.57;;;4.97;;
20611;SDS011;10465;42.686;23.364;2022-11-20T15:23:40;11.20;;;5.30;;
20611;SDS011;10465;42.686;23.364;2022-11-20T15:26:06;7.30;;;5.60;;
20611;SDS011;10465;42.686;23.364;2022-11-20T15:28:34;6.85;;;4.32;;
20611;SDS011;10465;42.686;23.364;2022-11-20T15:31:04;6.85;;;3.50;;
20611;SDS011;10465;42.686;23.364;2022-11-20T15:33:31;5.15;;;3.30;;
20611;SDS011;10465;42.686;23.364;2022-11-20T15:35:57;7.50;;;2.92;;
20611;SDS011;10465;42.686;23.364;2022-11-20T15:38:23;5.32;;;3.40;;
20611;SDS011;10465;42.686;23.364;2022-11-20T15:40:48;5.75;;;3.65;;
20611;SDS011;10465;42.686;23.364;2022-11-20T15:43:14;6.05;;;3.50;;
20611;SDS011;10465;42.686;23.364;2022-11-20T15:45:44;7.03;;;3.58;;
20611;SDS011;10465;42.686;23.364;2022-11-20T15:48:16;6.10;;;3.80;;
20611;SDS011;10465;42.686;23.364;2022-11-20T15:50:55;4.65;;;3.10;;
20611;SDS011;10465;42.686;23.364;2022-11-20T15:53:25;4.28;;;2.60;;
20611;SDS011;10465;42.686;23.364;2022-11-20T15:55:50;4.00;;;2.78;;
20611;SDS011;10465;42.686;23.364;2022-11-20T15:58:16;2.67;;;1.85;;
20611;SDS011;10465;42.686;23.364;2022-11-20T16:00:44;3.50;;;2.13;;
20611;SDS011;10465;42.686;23.364;2022-11-20T16:03:10;3.65;;;3.00;;
20611;SDS011;10465;42.686;23.364;2022-11-20T16:05:37;57.03;;;25.40;;
20611;SDS011;10465;42.686;23.364;2022-11-20T16:08:03;35.25;;;17.67;;
20611;SDS011;10465;42.686;23.364;2022-11-20T16:10:28;54.50;;;25.75;;
20611;SDS011;10465;42.686;23.364;2022-11-20T16:12:53;17.65;;;11.25;;
20611;SDS011;10465;42.686;23.364;2022-11-20T16:15:37;9.38;;;4.95;;
20611;SDS011;10465;42.686;23.364;2022-11-20T16:18:18;7.78;;;4.63;;
20611;SDS011;10465;42.686;23.364;2022-11-20T16:20:46;9.98;;;4.45;;
20611;SDS011;10465;42.686;23.364;2022-11-20T16:23:16;8.90;;;4.75;;
20611;SDS011;10465;42.686;23.364;2022-11-20T16:25:43;6.88;;;4.60;;
20611;SDS011;10465;42.686;23.364;2022-11-20T16:28:08;5.78;;;3.53;;
20611;SDS011;10465;42.686;23.364;2022-11-20T16:30:34;6.03;;;4.00;;
20611;SDS011;10465;42.686;23.364;2022-11-20T16:33:00;8.10;;;4.97;;
20611;SDS011;10465;42.686;23.364;2022-11-20T16:35:27;7.28;;;4.85;;
20611;SDS011;10465;42.686;23.364;2022-11-20T16:37:53;7.65;;;5.05;;
20611;SDS011;10465;42.686;23.364;2022-11-20T16:40:19;9.43;;;5.93;;
20611;SDS011;10465;42.686;23.364;2022-11-20T16:42:45;8.95;;;6.15;;
20611;SDS011;10465;42.686;23.364;2022-11-20T16:45:10;10.38;;;6.18;;
20611;SDS011;10465;42.686;23.364;2022-11-20T16:47:36;8.98;;;5.70;;